sensor_id;sensor_type;location;lat;lon;timestamp;P1;durP1;ratioP1;P2;durP2;ratioP2
20423;SDS011;10371;49.042;8.002;2022-07-10T00:00:22;4.57;;;4.18;;
20423;SDS011;10371;49.042;8.002;2022-07-10T00:01:22;4.53;;;4.20;;
20423;SDS011;10371;49.042;8.002;2022-07-10T00:02:23;4.38;;;4.07;;
20423;SDS011;10371;49.042;8.002;2022-07-10T00:03:23;4.45;;;4.05;;
20423;SDS011;10371;49.042;8.002;2022-07-10T00:04:23;4.90;;;4.40;;
20423;SDS011;10371;49.042;8.002;2022-07-10T00:05:24;4.65;;;4.32;;
20423;SDS011;10371;49.042;8.002;2022-07-10T00:06:24;4.43;;;4.10;;
20423;SDS011;10371;49.042;8.002;2022-07-10T00:07:24;4.85;;;4.45;;
20423;SDS011;10371;49.042;8.002;2022-07-10T00:08:24;4.55;;;4.15;;
20423;SDS011;10371;49.042;8.002;2022-07-10T00:09:25;4.32;;;3.92;;
20423;SDS011;10371;49.042;8.002;2022-07-10T00:10:25;4.95;;;4.25;;
20423;SDS011;10371;49.042;8.002;2022-07-10T00:11:25;4.93;;;4.53;;
20423;SDS011;10371;49.042;8.002;2022-07-10T00:12:25;4.47;;;4.07;;
20423;SDS011;10371;49.042;8.002;2022-07-10T00:13:25;4.07;;;3.72;;
20423;SDS011;10371;49.042;8.002;2022-07-10T00:14:26;4.47;;;4.07;;
20423;SDS011;10371;49.042;8.002;2022-07-10T00:15:26;6.47;;;4.40;;
20423;SDS011;10371;49.042;8.002;2022-07-10T00:16:26;4.65;;;4.25;;
20423;SDS011;10371;49.042;8.002;2022-07-10T00:17:26;4.55;;;4.10;;
20423;SDS011;10371;49.042;8.002;2022-07-10T00:18:28;4.47;;;3.85;;
20423;SDS011;10371;49.042;8.002;2022-07-10T00:19:28;5.32;;;4.80;;
20423;SDS011;10371;49.042;8.002;2022-07-10T00:20:28;3.78;;;3.47;;
20423;SDS011;10371;49.042;8.002;2022-07-10T00:21:28;3.72;;;3.42;;
20423;SDS011;10371;49.042;8.002;2022-07-10T00:22:28;4.45;;;4.10;;
20423;SDS011;10371;49.042;8.002;2022-07-10T00:23:29;4.57;;;4.15;;
20423;SDS011;10371;49.042;8.002;2022-07-10T00:24:29;3.60;;;3.40;;
20423;SDS011;10371;49.042;8.002;2022-07-10T00:25:29;3.78;;;3.38;;
20423;SDS011;10371;49.042;8.002;2022-07-10T00:26:30;4.03;;;3.58;;
20423;SDS011;10371;49.042;8.002;2022-07-10T00:27:30;4.10;;;3.70;;
20423;SDS011;10371;49.042;8.002;2022-07-10T00:28:30;3.63;;;3.42;;
20423;SDS011;10371;49.042;8.002;2022-07-10T00:29:30;3.80;;;3.40;;
20423;SDS011;10371;49.042;8.002;2022-07-10T00:30:31;4.05;;;3.40;;
20423;SDS011;10371;49.042;8.002;2022-07-10T00:31:31;3.90;;;3.60;;
20423;SDS011;10371;49.042;8.002;2022-07-10T00:32:31;3.40;;;3.10;;
20423;SDS011;10371;49.042;8.002;2022-07-10T00:33:31;3.58;;;3.20;;
20423;SDS011;10371;49.042;8.002;2022-07-10T00:34:32;3.70;;;3.40;;
20423;SDS011;10371;49.042;8.002;2022-07-10T00:35:32;3.10;;;2.80;;
20423;SDS011;10371;49.042;8.002;2022-07-10T00:36:32;4.78;;;3.08;;
20423;SDS011;10371;49.042;8.002;2022-07-10T00:37:33;3.83;;;3.05;;
20423;SDS011;10371;49.042;8.002;2022-07-10T00:38:33;4.10;;;3.03;;
20423;SDS011;10371;49.042;8.002;2022-07-10T00:39:33;3.30;;;3.10;;
20423;SDS011;10371;49.042;8.002;2022-07-10T00:40:33;3.80;;;3.03;;
20423;SDS011;10371;49.042;8.002;2022-07-10T00:41:33;3.60;;;2.60;;
20423;SDS011;10371;49.042;8.002;2022-07-10T00:42:34;3.50;;;2.72;;
20423;SDS011;10371;49.042;8.002;2022-07-10T00:43:56;3.42;;;2.85;;
20423;SDS011;10371;49.042;8.002;2022-07-10T00:44:57;3.00;;;2.63;;
20423;SDS011;10371;49.042;8.002;2022-07-10T00:45:57;2.88;;;2.67;;
20423;SDS011;10371;49.042;8.002;2022-07-10T00:46:57;3.08;;;2.70;;
20423;SDS011;10371;49.042;8.002;2022-07-10T00:47:58;2.67;;;2.47;;
20423;SDS011;10371;49.042;8.002;2022-07-10T00:48:58;2.70;;;2.50;;
20423;SDS011;10371;49.042;8.002;2022-07-10T00:49:58;2.97;;;2.72;;
20423;SDS011;10371;49.042;8.002;2022-07-10T00:50:58;2.70;;;2.50;;
20423;SDS011;10371;49.042;8.002;2022-07-10T00:51:59;2.60;;;2.40;;
20423;SDS011;10371;49.042;8.002;2022-07-10T00:53:00;3.40;;;2.85;;
20423;SDS011;10371;49.042;8.002;2022-07-10T00:54:00;2.63;;;2.42;;
20423;SDS011;10371;49.042;8.002;2022-07-10T00:55:00;5.15;;;2.78;;
20423;SDS011;10371;49.042;8.002;2022-07-10T00:56:01;2.60;;;2.40;;
20423;SDS011;10371;49.042;8.002;2022-07-10T00:57:03;2.97;;;2.78;;
20423;SDS011;10371;49.042;8.002;2022-07-10T00:58:05;2.92;;;2.47;;
20423;SDS011;10371;49.042;8.002;2022-07-10T00:59:06;3.00;;;2.50;;
20423;SDS011;10371;49.042;8.002;2022-07-10T01:00:06;4.95;;;2.70;;
20423;SDS011;10371;49.042;8.002;2022-07-10T01:01:07;2.60;;;2.40;;
20423;SDS011;10371;49.042;8.002;2022-07-10T01:02:08;3.15;;;2.85;;
20423;SDS011;10371;49.042;8.002;2022-07-10T01:03:09;3.55;;;2.42;;
20423;SDS011;10371;49.042;8.002;2022-07-10T01:04:09;3.53;;;2.70;;
20423;SDS011;10371;49.042;8.002;2022-07-10T01:05:09;3.95;;;2.70;;
20423;SDS011;10371;49.042;8.002;2022-07-10T01:06:09;7.45;;;3.08;;
20423;SDS011;10371;49.042;8.002;2022-07-10T01:07:09;3.55;;;2.60;;
20423;SDS011;10371;49.042;8.002;2022-07-10T01:08:10;2.92;;;2.35;;
20423;SDS011;10371;49.042;8.002;2022-07-10T01:09:10;3.03;;;2.20;;
20423;SDS011;10371;49.042;8.002;2022-07-10T01:10:10;3.70;;;2.58;;
20423;SDS011;10371;49.042;8.002;2022-07-10T01:11:10;2.63;;;2.42;;
20423;SDS011;10371;49.042;8.002;2022-07-10T01:12:11;2.95;;;2.63;;
20423;SDS011;10371;49.042;8.002;2022-07-10T01:13:12;3.20;;;2.42;;
20423;SDS011;10371;49.042;8.002;2022-07-10T01:14:12;2.78;;;2.58;;
20423;SDS011;10371;49.042;8.002;2022-07-10T01:15:12;2.70;;;2.33;;
20423;SDS011;10371;49.042;8.002;2022-07-10T01:16:12;2.67;;;2.25;;
20423;SDS011;10371;49.042;8.002;2022-07-10T01:17:13;7.88;;;2.60;;
20423;SDS011;10371;49.042;8.002;2022-07-10T01:18:16;3.63;;;2.65;;
20423;SDS011;10371;49.042;8.002;2022-07-10T01:19:16;2.85;;;2.60;;
20423;SDS011;10371;49.042;8.002;2022-07-10T01:20:17;3.58;;;2.50;;
20423;SDS011;10371;49.042;8.002;2022-07-10T01:21:27;2.70;;;2.50;;
20423;SDS011;10371;49.042;8.002;2022-07-10T01:22:28;3.40;;;2.20;;
20423;SDS011;10371;49.042;8.002;2022-07-10T01:23:28;2.95;;;2.50;;
20423;SDS011;10371;49.042;8.002;2022-07-10T01:24:28;2.70;;;2.50;;
20423;SDS011;10371;49.042;8.002;2022-07-10T01:25:28;2.90;;;2.53;;
20423;SDS011;10371;49.042;8.002;2022-07-10T01:26:28;5.03;;;2.60;;
20423;SDS011;10371;49.042;8.002;2022-07-10T01:27:28;2.92;;;2.63;;
20423;SDS011;10371;49.042;8.002;2022-07-10T01:28:29;2.55;;;2.35;;
20423;SDS011;10371;49.042;8.002;2022-07-10T01:29:29;2.60;;;2.40;;
20423;SDS011;10371;49.042;8.002;2022-07-10T01:30:29;2.88;;;2.47;;
20423;SDS011;10371;49.042;8.002;2022-07-10T01:31:30;3.30;;;2.58;;
20423;SDS011;10371;49.042;8.002;2022-07-10T01:32:37;2.80;;;2.60;;
20423;SDS011;10371;49.042;8.002;2022-07-10T01:33:37;4.35;;;2.58;;
20423;SDS011;10371;49.042;8.002;2022-07-10T01:34:37;3.10;;;2.33;;
20423;SDS011;10371;49.042;8.002;2022-07-10T01:35:38;3.65;;;2.40;;
20423;SDS011;10371;49.042;8.002;2022-07-10T01:36:38;3.17;;;2.60;;
20423;SDS011;10371;49.042;8.002;2022-07-10T01:37:39;2.45;;;2.20;;
20423;SDS011;10371;49.042;8.002;2022-07-10T01:38:40;2.85;;;2.60;;
20423;SDS011;10371;49.042;8.002;2022-07-10T01:39:40;4.25;;;2.65;;
20423;SDS011;10371;49.042;8.002;2022-07-10T01:40:41;4.00;;;2.80;;
20423;SDS011;10371;49.042;8.002;2022-07-10T01:41:41;3.10;;;2.60;;
20423;SDS011;10371;49.042;8.002;2022-07-10T01:42:41;3.53;;;2.45;;
20423;SDS011;10371;49.042;8.002;2022-07-10T01:43:41;4.63;;;2.45;;
20423;SDS011;10371;49.042;8.002;2022-07-10T01:44:43;2.80;;;2.60;;
20423;SDS011;10371;49.042;8.002;2022-07-10T01:45:43;3.30;;;2.28;;
20423;SDS011;10371;49.042;8.002;2022-07-10T01:46:44;2.80;;;2.60;;
20423;SDS011;10371;49.042;8.002;2022-07-10T01:47:45;4.38;;;2.55;;
20423;SDS011;10371;49.042;8.002;2022-07-10T01:48:45;3.75;;;2.55;;
20423;SDS011;10371;49.042;8.002;2022-07-10T01:49:46;2.80;;;2.50;;
20423;SDS011;10371;49.042;8.002;2022-07-10T01:50:46;3.08;;;2.17;;
20423;SDS011;10371;49.042;8.002;2022-07-10T01:51:46;3.25;;;2.30;;
20423;SDS011;10371;49.042;8.002;2022-07-10T01:52:46;2.42;;;2.22;;
20423;SDS011;10371;49.042;8.002;2022-07-10T01:53:46;3.58;;;2.15;;
20423;SDS011;10371;49.042;8.002;2022-07-10T01:54:47;3.72;;;2.30;;
20423;SDS011;10371;49.042;8.002;2022-07-10T01:55:47;2.90;;;2.20;;
20423;SDS011;10371;49.042;8.002;2022-07-10T01:56:47;3.92;;;2.92;;
20423;SDS011;10371;49.042;8.002;2022-07-10T01:57:48;3.58;;;2.35;;
20423;SDS011;10371;49.042;8.002;2022-07-10T01:58:48;2.83;;;2.22;;
20423;SDS011;10371;49.042;8.002;2022-07-10T01:59:48;4.70;;;2.70;;
20423;SDS011;10371;49.042;8.002;2022-07-10T02:00:48;4.13;;;2.40;;
20423;SDS011;10371;49.042;8.002;2022-07-10T02:01:48;2.30;;;2.10;;
20423;SDS011;10371;49.042;8.002;2022-07-10T02:02:48;3.13;;;2.63;;
20423;SDS011;10371;49.042;8.002;2022-07-10T02:04:09;7.70;;;2.67;;
20423;SDS011;10371;49.042;8.002;2022-07-10T02:05:27;3.70;;;2.58;;
20423;SDS011;10371;49.042;8.002;2022-07-10T02:06:27;5.18;;;2.50;;
20423;SDS011;10371;49.042;8.002;2022-07-10T02:07:28;3.45;;;2.60;;
20423;SDS011;10371;49.042;8.002;2022-07-10T02:08:28;4.07;;;2.65;;
20423;SDS011;10371;49.042;8.002;2022-07-10T02:09:28;3.15;;;2.35;;
20423;SDS011;10371;49.042;8.002;2022-07-10T02:10:28;2.60;;;2.40;;
20423;SDS011;10371;49.042;8.002;2022-07-10T02:11:28;4.70;;;2.30;;
20423;SDS011;10371;49.042;8.002;2022-07-10T02:12:28;4.72;;;2.45;;
20423;SDS011;10371;49.042;8.002;2022-07-10T02:13:29;2.70;;;2.28;;
20423;SDS011;10371;49.042;8.002;2022-07-10T02:14:29;4.60;;;2.90;;
20423;SDS011;10371;49.042;8.002;2022-07-10T02:15:29;5.15;;;2.42;;
20423;SDS011;10371;49.042;8.002;2022-07-10T02:16:29;3.30;;;2.70;;
20423;SDS011;10371;49.042;8.002;2022-07-10T02:17:29;3.85;;;2.40;;
20423;SDS011;10371;49.042;8.002;2022-07-10T02:18:30;2.72;;;2.25;;
20423;SDS011;10371;49.042;8.002;2022-07-10T02:19:32;2.85;;;2.35;;
20423;SDS011;10371;49.042;8.002;2022-07-10T02:20:32;3.83;;;2.50;;
20423;SDS011;10371;49.042;8.002;2022-07-10T02:21:34;2.65;;;2.40;;
20423;SDS011;10371;49.042;8.002;2022-07-10T02:22:34;3.28;;;2.40;;
20423;SDS011;10371;49.042;8.002;2022-07-10T02:23:35;4.15;;;2.58;;
20423;SDS011;10371;49.042;8.002;2022-07-10T02:24:35;3.13;;;2.55;;
20423;SDS011;10371;49.042;8.002;2022-07-10T02:25:35;2.60;;;2.40;;
20423;SDS011;10371;49.042;8.002;2022-07-10T02:26:36;3.78;;;2.30;;
20423;SDS011;10371;49.042;8.002;2022-07-10T02:27:36;2.53;;;2.25;;
20423;SDS011;10371;49.042;8.002;2022-07-10T02:28:36;2.78;;;2.50;;
20423;SDS011;10371;49.042;8.002;2022-07-10T02:29:36;3.95;;;2.75;;
20423;SDS011;10371;49.042;8.002;2022-07-10T02:30:37;3.72;;;2.08;;
20423;SDS011;10371;49.042;8.002;2022-07-10T02:31:38;3.85;;;2.25;;
20423;SDS011;10371;49.042;8.002;2022-07-10T02:32:41;3.28;;;2.45;;
20423;SDS011;10371;49.042;8.002;2022-07-10T02:33:41;3.83;;;2.58;;
20423;SDS011;10371;49.042;8.002;2022-07-10T02:34:41;2.55;;;2.13;;
20423;SDS011;10371;49.042;8.002;2022-07-10T02:35:41;3.05;;;2.20;;
20423;SDS011;10371;49.042;8.002;2022-07-10T02:36:42;2.80;;;2.10;;
20423;SDS011;10371;49.042;8.002;2022-07-10T02:37:42;3.17;;;2.38;;
20423;SDS011;10371;49.042;8.002;2022-07-10T02:38:42;3.45;;;2.35;;
20423;SDS011;10371;49.042;8.002;2022-07-10T02:39:42;4.72;;;2.47;;
20423;SDS011;10371;49.042;8.002;2022-07-10T02:40:42;4.55;;;2.35;;
20423;SDS011;10371;49.042;8.002;2022-07-10T02:41:43;4.57;;;2.70;;
20423;SDS011;10371;49.042;8.002;2022-07-10T02:42:43;3.70;;;2.60;;
20423;SDS011;10371;49.042;8.002;2022-07-10T02:43:43;4.93;;;2.60;;
20423;SDS011;10371;49.042;8.002;2022-07-10T02:44:43;3.40;;;2.30;;
20423;SDS011;10371;49.042;8.002;2022-07-10T02:45:43;4.32;;;2.45;;
20423;SDS011;10371;49.042;8.002;2022-07-10T02:46:44;6.10;;;2.80;;
20423;SDS011;10371;49.042;8.002;2022-07-10T02:47:44;3.65;;;2.38;;
20423;SDS011;10371;49.042;8.002;2022-07-10T02:48:44;3.85;;;2.70;;
20423;SDS011;10371;49.042;8.002;2022-07-10T02:49:44;2.45;;;2.20;;
20423;SDS011;10371;49.042;8.002;2022-07-10T02:50:44;6.22;;;2.50;;
20423;SDS011;10371;49.042;8.002;2022-07-10T02:51:44;3.63;;;2.38;;
20423;SDS011;10371;49.042;8.002;2022-07-10T02:52:45;3.38;;;2.47;;
20423;SDS011;10371;49.042;8.002;2022-07-10T02:53:45;4.78;;;2.88;;
20423;SDS011;10371;49.042;8.002;2022-07-10T02:54:45;4.97;;;2.72;;
20423;SDS011;10371;49.042;8.002;2022-07-10T02:55:45;4.38;;;2.28;;
20423;SDS011;10371;49.042;8.002;2022-07-10T02:56:45;4.00;;;2.50;;
20423;SDS011;10371;49.042;8.002;2022-07-10T02:57:46;4.85;;;2.60;;
20423;SDS011;10371;49.042;8.002;2022-07-10T02:58:46;3.30;;;2.33;;
20423;SDS011;10371;49.042;8.002;2022-07-10T02:59:46;3.22;;;2.55;;
20423;SDS011;10371;49.042;8.002;2022-07-10T03:00:46;3.92;;;2.60;;
20423;SDS011;10371;49.042;8.002;2022-07-10T03:01:46;5.95;;;2.67;;
20423;SDS011;10371;49.042;8.002;2022-07-10T03:02:46;4.43;;;2.80;;
20423;SDS011;10371;49.042;8.002;2022-07-10T03:03:47;4.22;;;2.63;;
20423;SDS011;10371;49.042;8.002;2022-07-10T03:04:47;7.15;;;2.95;;
20423;SDS011;10371;49.042;8.002;2022-07-10T03:05:47;4.53;;;2.50;;
20423;SDS011;10371;49.042;8.002;2022-07-10T03:06:47;3.78;;;2.45;;
20423;SDS011;10371;49.042;8.002;2022-07-10T03:07:47;6.18;;;2.58;;
20423;SDS011;10371;49.042;8.002;2022-07-10T03:08:48;3.58;;;2.42;;
20423;SDS011;10371;49.042;8.002;2022-07-10T03:09:48;2.47;;;2.25;;
20423;SDS011;10371;49.042;8.002;2022-07-10T03:10:48;8.18;;;2.90;;
20423;SDS011;10371;49.042;8.002;2022-07-10T03:11:48;5.68;;;2.88;;
20423;SDS011;10371;49.042;8.002;2022-07-10T03:12:49;3.28;;;2.35;;
20423;SDS011;10371;49.042;8.002;2022-07-10T03:13:49;5.15;;;2.97;;
20423;SDS011;10371;49.042;8.002;2022-07-10T03:14:49;3.30;;;2.30;;
20423;SDS011;10371;49.042;8.002;2022-07-10T03:15:50;3.05;;;2.42;;
20423;SDS011;10371;49.042;8.002;2022-07-10T03:16:50;3.92;;;2.42;;
20423;SDS011;10371;49.042;8.002;2022-07-10T03:17:50;4.45;;;2.70;;
20423;SDS011;10371;49.042;8.002;2022-07-10T03:18:50;5.13;;;2.65;;
20423;SDS011;10371;49.042;8.002;2022-07-10T03:19:50;3.83;;;2.53;;
20423;SDS011;10371;49.042;8.002;2022-07-10T03:20:50;3.78;;;2.58;;
20423;SDS011;10371;49.042;8.002;2022-07-10T03:21:50;2.67;;;2.42;;
20423;SDS011;10371;49.042;8.002;2022-07-10T03:22:51;3.70;;;2.80;;
20423;SDS011;10371;49.042;8.002;2022-07-10T03:23:51;7.00;;;3.05;;
20423;SDS011;10371;49.042;8.002;2022-07-10T03:24:51;2.75;;;2.30;;
20423;SDS011;10371;49.042;8.002;2022-07-10T03:25:51;2.58;;;2.20;;
20423;SDS011;10371;49.042;8.002;2022-07-10T03:26:51;3.08;;;2.72;;
20423;SDS011;10371;49.042;8.002;2022-07-10T03:27:52;4.18;;;2.50;;
20423;SDS011;10371;49.042;8.002;2022-07-10T03:28:52;2.88;;;2.50;;
20423;SDS011;10371;49.042;8.002;2022-07-10T03:29:52;3.45;;;2.33;;
20423;SDS011;10371;49.042;8.002;2022-07-10T03:30:52;3.03;;;2.30;;
20423;SDS011;10371;49.042;8.002;2022-07-10T03:31:52;3.92;;;2.40;;
20423;SDS011;10371;49.042;8.002;2022-07-10T03:32:53;6.35;;;2.75;;
20423;SDS011;10371;49.042;8.002;2022-07-10T03:33:53;3.08;;;2.47;;
20423;SDS011;10371;49.042;8.002;2022-07-10T03:34:53;4.32;;;2.67;;
20423;SDS011;10371;49.042;8.002;2022-07-10T03:35:53;3.30;;;2.35;;
20423;SDS011;10371;49.042;8.002;2022-07-10T03:36:54;3.05;;;2.75;;
20423;SDS011;10371;49.042;8.002;2022-07-10T03:37:54;3.25;;;2.08;;
20423;SDS011;10371;49.042;8.002;2022-07-10T03:38:54;3.45;;;2.55;;
20423;SDS011;10371;49.042;8.002;2022-07-10T03:39:54;3.63;;;2.53;;
20423;SDS011;10371;49.042;8.002;2022-07-10T03:40:55;3.15;;;2.50;;
20423;SDS011;10371;49.042;8.002;2022-07-10T03:41:55;3.75;;;2.72;;
20423;SDS011;10371;49.042;8.002;2022-07-10T03:42:55;3.83;;;2.40;;
20423;SDS011;10371;49.042;8.002;2022-07-10T03:43:55;4.25;;;2.42;;
20423;SDS011;10371;49.042;8.002;2022-07-10T03:44:55;3.65;;;2.30;;
20423;SDS011;10371;49.042;8.002;2022-07-10T03:45:56;4.95;;;2.60;;
20423;SDS011;10371;49.042;8.002;2022-07-10T03:46:56;4.47;;;2.60;;
20423;SDS011;10371;49.042;8.002;2022-07-10T03:47:56;2.72;;;2.30;;
20423;SDS011;10371;49.042;8.002;2022-07-10T03:48:57;3.35;;;2.30;;
20423;SDS011;10371;49.042;8.002;2022-07-10T03:49:57;3.40;;;2.53;;
20423;SDS011;10371;49.042;8.002;2022-07-10T03:50:57;4.45;;;2.58;;
20423;SDS011;10371;49.042;8.002;2022-07-10T03:51:59;5.10;;;2.63;;
20423;SDS011;10371;49.042;8.002;2022-07-10T03:53:00;4.82;;;2.83;;
20423;SDS011;10371;49.042;8.002;2022-07-10T03:54:00;2.75;;;2.45;;
20423;SDS011;10371;49.042;8.002;2022-07-10T03:55:01;6.47;;;2.50;;
20423;SDS011;10371;49.042;8.002;2022-07-10T03:56:01;3.55;;;2.33;;
20423;SDS011;10371;49.042;8.002;2022-07-10T03:57:01;4.40;;;2.28;;
20423;SDS011;10371;49.042;8.002;2022-07-10T03:58:20;3.78;;;2.42;;
20423;SDS011;10371;49.042;8.002;2022-07-10T03:59:20;4.50;;;3.05;;
20423;SDS011;10371;49.042;8.002;2022-07-10T04:00:22;5.10;;;2.55;;
20423;SDS011;10371;49.042;8.002;2022-07-10T04:01:23;2.50;;;2.30;;
20423;SDS011;10371;49.042;8.002;2022-07-10T04:02:23;3.17;;;2.35;;
20423;SDS011;10371;49.042;8.002;2022-07-10T04:03:23;2.72;;;2.50;;
20423;SDS011;10371;49.042;8.002;2022-07-10T04:04:23;5.25;;;2.42;;
20423;SDS011;10371;49.042;8.002;2022-07-10T04:05:24;3.53;;;2.80;;
20423;SDS011;10371;49.042;8.002;2022-07-10T04:06:24;2.72;;;2.50;;
20423;SDS011;10371;49.042;8.002;2022-07-10T04:07:24;3.33;;;2.10;;
20423;SDS011;10371;49.042;8.002;2022-07-10T04:08:25;4.55;;;2.50;;
20423;SDS011;10371;49.042;8.002;2022-07-10T04:09:25;2.65;;;2.40;;
20423;SDS011;10371;49.042;8.002;2022-07-10T04:10:25;4.38;;;2.53;;
20423;SDS011;10371;49.042;8.002;2022-07-10T04:11:26;2.65;;;2.33;;
20423;SDS011;10371;49.042;8.002;2022-07-10T04:12:26;5.05;;;2.40;;
20423;SDS011;10371;49.042;8.002;2022-07-10T04:13:26;6.03;;;2.70;;
20423;SDS011;10371;49.042;8.002;2022-07-10T04:14:26;5.03;;;2.80;;
20423;SDS011;10371;49.042;8.002;2022-07-10T04:15:26;5.72;;;2.58;;
20423;SDS011;10371;49.042;8.002;2022-07-10T04:16:27;3.25;;;2.28;;
20423;SDS011;10371;49.042;8.002;2022-07-10T04:17:27;2.63;;;2.42;;
20423;SDS011;10371;49.042;8.002;2022-07-10T04:18:27;2.75;;;2.38;;
20423;SDS011;10371;49.042;8.002;2022-07-10T04:19:27;2.60;;;2.00;;
20423;SDS011;10371;49.042;8.002;2022-07-10T04:20:27;4.85;;;2.47;;
20423;SDS011;10371;49.042;8.002;2022-07-10T04:21:28;4.65;;;2.45;;
20423;SDS011;10371;49.042;8.002;2022-07-10T04:22:28;2.90;;;2.38;;
20423;SDS011;10371;49.042;8.002;2022-07-10T04:23:28;2.97;;;2.20;;
20423;SDS011;10371;49.042;8.002;2022-07-10T04:24:28;3.85;;;2.50;;
20423;SDS011;10371;49.042;8.002;2022-07-10T04:25:28;6.30;;;2.42;;
20423;SDS011;10371;49.042;8.002;2022-07-10T04:26:28;3.72;;;2.33;;
20423;SDS011;10371;49.042;8.002;2022-07-10T04:27:29;3.15;;;2.30;;
20423;SDS011;10371;49.042;8.002;2022-07-10T04:28:29;4.40;;;2.55;;
20423;SDS011;10371;49.042;8.002;2022-07-10T04:29:29;3.30;;;2.40;;
20423;SDS011;10371;49.042;8.002;2022-07-10T04:30:29;3.58;;;2.40;;
20423;SDS011;10371;49.042;8.002;2022-07-10T04:31:30;5.28;;;2.83;;
20423;SDS011;10371;49.042;8.002;2022-07-10T04:32:30;4.45;;;2.50;;
20423;SDS011;10371;49.042;8.002;2022-07-10T04:33:31;2.70;;;2.35;;
20423;SDS011;10371;49.042;8.002;2022-07-10T04:34:31;4.03;;;2.35;;
20423;SDS011;10371;49.042;8.002;2022-07-10T04:35:32;3.40;;;2.50;;
20423;SDS011;10371;49.042;8.002;2022-07-10T04:36:32;4.68;;;2.50;;
20423;SDS011;10371;49.042;8.002;2022-07-10T04:37:32;2.53;;;2.17;;
20423;SDS011;10371;49.042;8.002;2022-07-10T04:38:34;3.85;;;2.60;;
20423;SDS011;10371;49.042;8.002;2022-07-10T04:39:35;3.80;;;2.30;;
20423;SDS011;10371;49.042;8.002;2022-07-10T04:40:35;4.38;;;2.20;;
20423;SDS011;10371;49.042;8.002;2022-07-10T04:41:35;2.55;;;2.08;;
20423;SDS011;10371;49.042;8.002;2022-07-10T04:42:35;5.60;;;2.53;;
20423;SDS011;10371;49.042;8.002;2022-07-10T04:43:35;6.38;;;2.53;;
20423;SDS011;10371;49.042;8.002;2022-07-10T04:44:36;3.05;;;2.30;;
20423;SDS011;10371;49.042;8.002;2022-07-10T04:45:36;4.75;;;2.10;;
20423;SDS011;10371;49.042;8.002;2022-07-10T04:46:37;2.17;;;1.95;;
20423;SDS011;10371;49.042;8.002;2022-07-10T04:47:37;2.33;;;2.00;;
20423;SDS011;10371;49.042;8.002;2022-07-10T04:48:38;3.50;;;2.20;;
20423;SDS011;10371;49.042;8.002;2022-07-10T04:49:38;3.25;;;2.28;;
20423;SDS011;10371;49.042;8.002;2022-07-10T04:50:38;2.85;;;1.95;;
20423;SDS011;10371;49.042;8.002;2022-07-10T04:51:38;4.50;;;2.20;;
20423;SDS011;10371;49.042;8.002;2022-07-10T04:52:38;3.63;;;2.13;;
20423;SDS011;10371;49.042;8.002;2022-07-10T04:53:38;3.22;;;1.90;;
20423;SDS011;10371;49.042;8.002;2022-07-10T04:54:38;4.60;;;2.33;;
20423;SDS011;10371;49.042;8.002;2022-07-10T04:55:39;3.60;;;1.98;;
20423;SDS011;10371;49.042;8.002;2022-07-10T04:56:39;3.22;;;2.00;;
20423;SDS011;10371;49.042;8.002;2022-07-10T04:57:39;4.28;;;2.10;;
20423;SDS011;10371;49.042;8.002;2022-07-10T04:58:44;2.30;;;1.70;;
20423;SDS011;10371;49.042;8.002;2022-07-10T04:59:44;3.22;;;1.92;;
20423;SDS011;10371;49.042;8.002;2022-07-10T05:00:44;3.92;;;2.25;;
20423;SDS011;10371;49.042;8.002;2022-07-10T05:01:44;3.00;;;1.73;;
20423;SDS011;10371;49.042;8.002;2022-07-10T05:02:44;2.10;;;1.90;;
20423;SDS011;10371;49.042;8.002;2022-07-10T05:03:45;3.17;;;2.13;;
20423;SDS011;10371;49.042;8.002;2022-07-10T05:04:45;3.65;;;2.00;;
20423;SDS011;10371;49.042;8.002;2022-07-10T05:05:45;4.20;;;2.17;;
20423;SDS011;10371;49.042;8.002;2022-07-10T05:06:45;4.05;;;2.08;;
20423;SDS011;10371;49.042;8.002;2022-07-10T05:07:45;2.15;;;1.90;;
20423;SDS011;10371;49.042;8.002;2022-07-10T05:08:46;3.15;;;2.03;;
20423;SDS011;10371;49.042;8.002;2022-07-10T05:09:46;3.83;;;2.30;;
20423;SDS011;10371;49.042;8.002;2022-07-10T05:10:46;6.35;;;2.33;;
20423;SDS011;10371;49.042;8.002;2022-07-10T05:11:46;3.75;;;2.10;;
20423;SDS011;10371;49.042;8.002;2022-07-10T05:12:47;2.83;;;1.90;;
20423;SDS011;10371;49.042;8.002;2022-07-10T05:13:47;3.72;;;2.17;;
20423;SDS011;10371;49.042;8.002;2022-07-10T05:14:48;4.40;;;2.28;;
20423;SDS011;10371;49.042;8.002;2022-07-10T05:15:48;3.60;;;2.05;;
20423;SDS011;10371;49.042;8.002;2022-07-10T05:16:49;3.25;;;2.30;;
20423;SDS011;10371;49.042;8.002;2022-07-10T05:17:50;2.70;;;1.70;;
20423;SDS011;10371;49.042;8.002;2022-07-10T05:18:50;2.20;;;2.00;;
20423;SDS011;10371;49.042;8.002;2022-07-10T05:19:50;3.63;;;1.95;;
20423;SDS011;10371;49.042;8.002;2022-07-10T05:20:51;2.60;;;1.75;;
20423;SDS011;10371;49.042;8.002;2022-07-10T05:21:51;3.55;;;2.05;;
20423;SDS011;10371;49.042;8.002;2022-07-10T05:22:51;2.75;;;2.13;;
20423;SDS011;10371;49.042;8.002;2022-07-10T05:23:52;3.90;;;1.95;;
20423;SDS011;10371;49.042;8.002;2022-07-10T05:24:52;4.05;;;2.15;;
20423;SDS011;10371;49.042;8.002;2022-07-10T05:25:52;3.78;;;2.28;;
20423;SDS011;10371;49.042;8.002;2022-07-10T05:26:53;3.15;;;2.10;;
20423;SDS011;10371;49.042;8.002;2022-07-10T05:27:53;2.35;;;2.03;;
20423;SDS011;10371;49.042;8.002;2022-07-10T05:28:53;2.20;;;2.00;;
20423;SDS011;10371;49.042;8.002;2022-07-10T05:29:53;2.63;;;1.75;;
20423;SDS011;10371;49.042;8.002;2022-07-10T05:30:53;2.97;;;2.00;;
20423;SDS011;10371;49.042;8.002;2022-07-10T05:31:53;4.13;;;1.90;;
20423;SDS011;10371;49.042;8.002;2022-07-10T05:32:54;4.47;;;2.10;;
20423;SDS011;10371;49.042;8.002;2022-07-10T05:33:54;3.65;;;2.25;;
20423;SDS011;10371;49.042;8.002;2022-07-10T05:34:56;2.60;;;2.22;;
20423;SDS011;10371;49.042;8.002;2022-07-10T05:35:57;3.38;;;1.88;;
20423;SDS011;10371;49.042;8.002;2022-07-10T05:36:57;4.03;;;2.25;;
20423;SDS011;10371;49.042;8.002;2022-07-10T05:37:57;3.92;;;2.28;;
20423;SDS011;10371;49.042;8.002;2022-07-10T05:38:57;1.85;;;1.65;;
20423;SDS011;10371;49.042;8.002;2022-07-10T05:39:57;4.35;;;1.90;;
20423;SDS011;10371;49.042;8.002;2022-07-10T05:40:57;3.03;;;2.00;;
20423;SDS011;10371;49.042;8.002;2022-07-10T05:41:58;1.83;;;1.73;;
20423;SDS011;10371;49.042;8.002;2022-07-10T05:42:58;2.22;;;1.85;;
20423;SDS011;10371;49.042;8.002;2022-07-10T05:43:59;2.65;;;2.28;;
20423;SDS011;10371;49.042;8.002;2022-07-10T05:44:59;1.80;;;1.70;;
20423;SDS011;10371;49.042;8.002;2022-07-10T05:45:59;4.20;;;1.98;;
20423;SDS011;10371;49.042;8.002;2022-07-10T05:47:00;4.65;;;2.05;;
20423;SDS011;10371;49.042;8.002;2022-07-10T05:48:00;3.80;;;1.77;;
20423;SDS011;10371;49.042;8.002;2022-07-10T05:49:00;5.28;;;2.05;;
20423;SDS011;10371;49.042;8.002;2022-07-10T05:50:01;3.30;;;1.90;;
20423;SDS011;10371;49.042;8.002;2022-07-10T05:51:01;2.45;;;2.00;;
20423;SDS011;10371;49.042;8.002;2022-07-10T05:52:01;3.90;;;2.05;;
20423;SDS011;10371;49.042;8.002;2022-07-10T05:53:02;4.95;;;2.10;;
20423;SDS011;10371;49.042;8.002;2022-07-10T05:54:02;2.25;;;1.80;;
20423;SDS011;10371;49.042;8.002;2022-07-10T05:55:03;2.75;;;1.83;;
20423;SDS011;10371;49.042;8.002;2022-07-10T05:56:03;2.13;;;1.65;;
20423;SDS011;10371;49.042;8.002;2022-07-10T05:57:04;2.88;;;1.85;;
20423;SDS011;10371;49.042;8.002;2022-07-10T05:58:04;4.32;;;2.15;;
20423;SDS011;10371;49.042;8.002;2022-07-10T05:59:05;3.90;;;1.90;;
20423;SDS011;10371;49.042;8.002;2022-07-10T06:00:06;3.72;;;1.90;;
20423;SDS011;10371;49.042;8.002;2022-07-10T06:01:06;3.90;;;2.00;;
20423;SDS011;10371;49.042;8.002;2022-07-10T06:02:06;2.15;;;1.77;;
20423;SDS011;10371;49.042;8.002;2022-07-10T06:03:07;3.92;;;2.00;;
20423;SDS011;10371;49.042;8.002;2022-07-10T06:04:07;2.30;;;1.92;;
20423;SDS011;10371;49.042;8.002;2022-07-10T06:05:08;4.53;;;2.05;;